Time;durP1;ratioP1;P1;durP2;ratioP2;P2;SDS_P1;SDS_P2;PMS_P1;PMS_P2;Temp;Humidity;BMP_temperature;BMP_pressure;BME280_temperature;BME280_humidity;BME280_pressure;Samples;Min_cycle;Max_cycle;Signal;HPM_P1;HPM_P2
2022/02/23 00:00:36;;;;;;;;;;;22.10;32.80;;;;;;473388;252;1064;-39
2022/02/23 00:02:37;;;;;;;;;;;22.10;32.80;;;;;;473618;251;1195;-39
2022/02/23 00:04:38;;;;;;;;;;;22.10;32.80;;;;;;475975;249;1063;-39
2022/02/23 00:06:40;;;;;;;;;;;22.10;32.90;;;;;;473614;252;2204;-39
2022/02/23 00:08:41;;;;;;;;;;;22.00;32.80;;;;;;473861;251;1230;-39
2022/02/23 00:10:43;;;;;;;;;;;22.10;32.80;;;;;;476462;249;1053;-39
2022/02/23 00:12:44;;;;;;;;;;;22.10;32.80;;;;;;473280;252;1160;-39
2022/02/23 00:14:45;;;;;;;;;;;22.10;32.80;;;;;;473867;251;1100;-39
2022/02/23 00:16:47;;;;;;;;;;;22.10;32.80;;;;;;476074;246;1320;-39
2022/02/23 00:18:48;;;;;;;;;;;22.00;32.80;;;;;;473681;252;1056;-39
2022/02/23 00:20:49;;;;;;;;;;;22.00;32.80;;;;;;473923;251;1114;-39
2022/02/23 00:22:51;;;;;;;;;;;22.10;32.80;;;;;;476145;249;1218;-39
2022/02/23 00:24:52;;;;;;;;;;;22.00;32.80;;;;;;473638;252;1054;-39
2022/02/23 00:26:53;;;;;;;;;;;22.10;32.80;;;;;;473943;251;2122;-39
2022/02/23 00:28:55;;;;;;;;;;;22.10;32.80;;;;;;476041;249;1012;-39
2022/02/23 00:30:56;;;;;;;;;;;22.10;32.80;;;;;;473175;252;1084;-39
2022/02/23 00:32:57;;;;;;;;;;;22.10;32.80;;;;;;473755;247;1070;-39
2022/02/23 00:34:59;;;;;;;;;;;22.10;32.90;;;;;;476301;249;1073;-39
2022/02/23 00:37:00;;;;;;;;;;;22.10;32.80;;;;;;473195;252;1199;-39
2022/02/23 00:39:01;;;;;;;;;;;22.00;32.80;;;;;;473893;251;1213;-39
2022/02/23 00:41:03;;;;;;;;;;;22.00;32.80;;;;;;476021;249;1507;-39
2022/02/23 00:43:06;;;;;;;;;;;22.00;32.80;;;;;;473277;252;1289;-39
2022/02/23 00:45:05;;;;;;;;;;;22.00;32.90;;;;;;473895;251;2116;-39
2022/02/23 00:47:06;;;;;;;;;;;22.10;32.90;;;;;;476170;249;2176;-39
2022/02/23 00:49:08;;;;;;;;;;;22.10;32.80;;;;;;473524;252;1046;-39
2022/02/23 00:51:09;;;;;;;;;;;22.00;32.80;;;;;;473640;251;1223;-39
2022/02/23 00:53:11;;;;;;;;;;;22.00;32.80;;;;;;475966;249;1210;-39
2022/02/23 00:55:12;;;;;;;;;;;22.10;32.80;;;;;;473751;252;1051;-39
2022/02/23 00:57:14;;;;;;;;;;;22.10;32.80;;;;;;473819;251;1112;-40
2022/02/23 00:59:15;;;;;;;;;;;22.10;32.80;;;;;;476444;249;1149;-39
2022/02/23 01:01:16;;;;;;;;;;;22.10;32.80;;;;;;473472;252;1177;-39
2022/02/23 01:03:17;;;;;;;;;;;22.00;32.80;;;;;;474145;251;1024;-39
2022/02/23 01:05:19;;;;;;;;;;;22.10;32.80;;;;;;476017;249;1067;-39
2022/02/23 01:07:21;;;;;;;;;;;22.00;32.80;;;;;;473426;252;2118;-39
2022/02/23 01:09:21;;;;;;;;;;;22.10;32.80;;;;;;473604;252;1405;-39
2022/02/23 01:11:23;;;;;;;;;;;22.10;32.70;;;;;;476210;249;1352;-39
2022/02/23 01:13:24;;;;;;;;;;;22.10;32.80;;;;;;473422;252;1031;-39
2022/02/23 01:15:25;;;;;;;;;;;22.10;32.80;;;;;;473886;251;1058;-39
2022/02/23 01:17:26;;;;;;;;;;;22.00;32.80;;;;;;475978;249;1347;-39
2022/02/23 01:19:28;;;;;;;;;;;22.00;32.90;;;;;;473444;252;1030;-39
2022/02/23 01:21:29;;;;;;;;;;;22.00;32.80;;;;;;473686;251;1344;-39
2022/02/23 01:23:30;;;;;;;;;;;22.10;32.80;;;;;;475945;249;1223;-39
2022/02/23 01:25:32;;;;;;;;;;;22.00;32.90;;;;;;473642;252;1088;-39
2022/02/23 01:27:33;;;;;;;;;;;22.10;32.90;;;;;;473599;251;2185;-39
2022/02/23 01:29:34;;;;;;;;;;;22.00;32.90;;;;;;475978;249;1083;-39
2022/02/23 01:31:36;;;;;;;;;;;22.00;32.90;;;;;;473315;252;1259;-39
2022/02/23 01:33:37;;;;;;;;;;;22.00;32.90;;;;;;473666;251;1126;-39
2022/02/23 01:35:38;;;;;;;;;;;22.10;32.90;;;;;;476407;249;1238;-39
2022/02/23 01:37:40;;;;;;;;;;;22.00;32.90;;;;;;473632;252;1195;-39
2022/02/23 01:39:41;;;;;;;;;;;22.00;32.90;;;;;;473894;251;1237;-39
2022/02/23 01:41:42;;;;;;;;;;;22.00;32.80;;;;;;476263;249;1280;-39
2022/02/23 01:43:44;;;;;;;;;;;22.10;32.90;;;;;;473293;252;1261;-39
2022/02/23 01:45:45;;;;;;;;;;;22.00;32.90;;;;;;473667;251;2193;-39
2022/02/23 01:47:46;;;;;;;;;;;22.10;32.90;;;;;;476054;249;1221;-39
2022/02/23 01:49:48;;;;;;;;;;;22.00;32.90;;;;;;473264;252;1097;-39
2022/02/23 01:51:49;;;;;;;;;;;22.10;32.90;;;;;;473947;251;1552;-39
2022/02/23 01:53:50;;;;;;;;;;;22.00;32.90;;;;;;476083;249;1265;-39
2022/02/23 01:55:52;;;;;;;;;;;22.00;32.90;;;;;;473251;252;1199;-39
2022/02/23 01:57:53;;;;;;;;;;;22.00;33.00;;;;;;473703;251;1262;-39
2022/02/23 01:59:54;;;;;;;;;;;22.00;33.00;;;;;;476470;249;1132;-39
2022/02/23 02:01:56;;;;;;;;;;;22.00;32.90;;;;;;473649;252;1221;-39
2022/02/23 02:03:57;;;;;;;;;;;22.00;32.90;;;;;;474042;251;1233;-39
2022/02/23 02:05:58;;;;;;;;;;;22.00;32.90;;;;;;476095;249;2125;-39
2022/02/23 02:08:00;;;;;;;;;;;22.00;32.90;;;;;;473667;252;1176;-39
2022/02/23 02:10:01;;;;;;;;;;;22.00;32.90;;;;;;473849;251;1172;-39
2022/02/23 02:12:02;;;;;;;;;;;22.00;32.90;;;;;;476077;249;1215;-39
2022/02/23 02:14:03;;;;;;;;;;;22.00;32.90;;;;;;473721;252;1083;-39
2022/02/23 02:16:05;;;;;;;;;;;22.10;32.90;;;;;;474116;251;1449;-39
2022/02/23 02:18:06;;;;;;;;;;;22.10;32.90;;;;;;476007;249;1196;-39
2022/02/23 02:20:08;;;;;;;;;;;22.10;32.90;;;;;;473602;252;1269;-39
2022/02/23 02:22:09;;;;;;;;;;;22.00;32.90;;;;;;473560;251;1444;-39
2022/02/23 02:24:10;;;;;;;;;;;22.00;33.00;;;;;;476009;249;1693;-39
2022/02/23 02:26:11;;;;;;;;;;;22.00;32.90;;;;;;473241;252;2181;-39
2022/02/23 02:28:13;;;;;;;;;;;22.00;32.90;;;;;;473865;251;1056;-39
2022/02/23 02:30:14;;;;;;;;;;;22.00;33.00;;;;;;476011;249;1250;-39
2022/02/23 02:32:17;;;;;;;;;;;22.00;33.00;;;;;;473225;252;1426;-39
2022/02/23 02:34:17;;;;;;;;;;;22.00;33.00;;;;;;474117;251;2320;-39
2022/02/23 02:36:18;;;;;;;;;;;22.00;33.00;;;;;;476021;249;1368;-39
2022/02/23 02:38:19;;;;;;;;;;;22.00;33.00;;;;;;473261;252;1284;-39
2022/02/23 02:40:21;;;;;;;;;;;22.00;33.00;;;;;;473909;251;1463;-39
2022/02/23 02:42:22;;;;;;;;;;;22.00;33.00;;;;;;476078;249;1173;-39
2022/02/23 02:44:23;;;;;;;;;;;22.00;32.90;;;;;;473751;252;1043;-39
2022/02/23 02:46:25;;;;;;;;;;;22.00;33.10;;;;;;473745;251;2134;-39
2022/02/23 02:48:26;;;;;;;;;;;22.00;33.10;;;;;;476014;249;1020;-39
2022/02/23 02:50:27;;;;;;;;;;;22.00;33.00;;;;;;473703;252;1510;-39
2022/02/23 02:52:29;;;;;;;;;;;22.00;33.00;;;;;;473763;251;1324;-39
2022/02/23 02:54:30;;;;;;;;;;;22.00;32.90;;;;;;476073;249;1043;-39
2022/02/23 02:56:32;;;;;;;;;;;22.00;33.00;;;;;;473484;252;1363;-39
2022/02/23 02:58:33;;;;;;;;;;;22.00;32.90;;;;;;474109;251;1469;-39
2022/02/23 03:00:34;;;;;;;;;;;22.00;33.00;;;;;;476263;249;1062;-39
2022/02/23 03:02:35;;;;;;;;;;;22.00;32.90;;;;;;473258;252;1257;-39
2022/02/23 03:04:37;;;;;;;;;;;22.00;33.00;;;;;;474055;251;1101;-39
2022/02/23 03:06:38;;;;;;;;;;;22.00;33.00;;;;;;475964;249;2203;-39
2022/02/23 03:08:39;;;;;;;;;;;22.00;33.00;;;;;;473242;252;1235;-39
2022/02/23 03:10:43;;;;;;;;;;;22.00;33.00;;;;;;473862;251;1236;-39
2022/02/23 03:12:42;;;;;;;;;;;22.10;33.10;;;;;;476266;250;2481;-39
2022/02/23 03:14:43;;;;;;;;;;;22.00;33.00;;;;;;473391;252;1194;-39
2022/02/23 03:16:46;;;;;;;;;;;22.00;33.00;;;;;;474131;251;1331;-39
2022/02/23 03:18:47;;;;;;;;;;;22.00;33.00;;;;;;475926;249;1257;-39
2022/02/23 03:20:48;;;;;;;;;;;22.10;33.00;;;;;;473527;252;1310;-39
2022/02/23 03:22:50;;;;;;;;;;;22.00;33.00;;;;;;473810;251;1171;-39
2022/02/23 03:24:51;;;;;;;;;;;22.00;33.00;;;;;;475948;249;1102;-39
2022/02/23 03:26:52;;;;;;;;;;;22.00;33.00;;;;;;473115;252;2198;-39
2022/02/23 03:28:54;;;;;;;;;;;22.10;33.10;;;;;;474027;251;1076;-39
2022/02/23 03:30:55;;;;;;;;;;;22.00;33.00;;;;;;475981;249;1151;-39
2022/02/23 03:32:56;;;;;;;;;;;22.10;33.00;;;;;;473239;252;1252;-39
2022/02/23 03:34:58;;;;;;;;;;;22.10;33.00;;;;;;474066;251;1016;-39
2022/02/23 03:36:59;;;;;;;;;;;22.00;33.00;;;;;;476309;249;1387;-39
2022/02/23 03:39:00;;;;;;;;;;;22.00;33.00;;;;;;473576;252;1026;-39
2022/02/23 03:41:02;;;;;;;;;;;22.00;33.00;;;;;;473908;251;1316;-39
2022/02/23 03:43:03;;;;;;;;;;;22.00;33.00;;;;;;476273;249;1367;-39
2022/02/23 03:45:04;;;;;;;;;;;22.00;33.00;;;;;;473592;252;1077;-39
2022/02/23 03:47:05;;;;;;;;;;;22.00;33.00;;;;;;473628;251;2197;-39
2022/02/23 03:49:07;;;;;;;;;;;22.00;33.00;;;;;;476040;249;1083;-39
2022/02/23 03:51:08;;;;;;;;;;;22.00;33.10;;;;;;473250;252;1158;-39
2022/02/23 03:53:09;;;;;;;;;;;22.00;33.00;;;;;;473727;251;1291;-39
2022/02/23 03:55:11;;;;;;;;;;;22.10;33.00;;;;;;476005;249;1139;-39
2022/02/23 03:57:12;;;;;;;;;;;22.10;33.10;;;;;;473230;252;1346;-39
2022/02/23 03:59:13;;;;;;;;;;;22.00;33.00;;;;;;474100;251;1042;-39
2022/02/23 04:01:15;;;;;;;;;;;22.00;33.10;;;;;;476387;249;1484;-39
2022/02/23 04:03:16;;;;;;;;;;;22.00;33.10;;;;;;473664;252;1047;-39
2022/02/23 04:05:17;;;;;;;;;;;22.00;33.10;;;;;;473683;251;1046;-39
2022/02/23 04:07:19;;;;;;;;;;;22.00;33.10;;;;;;475979;249;2150;-39
2022/02/23 04:09:20;;;;;;;;;;;22.00;33.10;;;;;;473628;252;1075;-39
2022/02/23 04:11:21;;;;;;;;;;;22.00;33.20;;;;;;473831;251;1325;-39
2022/02/23 04:13:23;;;;;;;;;;;22.00;33.20;;;;;;476005;249;1134;-39
2022/02/23 04:15:24;;;;;;;;;;;22.00;33.20;;;;;;473757;252;957;-39
2022/02/23 04:17:25;;;;;;;;;;;22.00;33.10;;;;;;474089;251;1151;-39
2022/02/23 04:19:27;;;;;;;;;;;22.00;33.10;;;;;;476211;249;1224;-39
2022/02/23 04:21:28;;;;;;;;;;;22.00;33.10;;;;;;473519;252;1329;-39
2022/02/23 04:23:29;;;;;;;;;;;22.00;33.20;;;;;;474164;251;1078;-39
2022/02/23 04:25:30;;;;;;;;;;;22.00;33.20;;;;;;476393;249;1262;-39
2022/02/23 04:27:32;;;;;;;;;;;22.00;33.20;;;;;;473181;252;2222;-39
2022/02/23 04:29:33;;;;;;;;;;;22.00;33.20;;;;;;474153;251;1049;-39
2022/02/23 04:31:35;;;;;;;;;;;22.00;33.20;;;;;;476309;249;1329;-39
2022/02/23 04:33:36;;;;;;;;;;;22.00;33.20;;;;;;473699;252;1083;-39
2022/02/23 04:35:37;;;;;;;;;;;22.00;33.20;;;;;;473642;251;1161;-39
2022/02/23 04:37:39;;;;;;;;;;;22.00;33.20;;;;;;476334;249;1275;-39
2022/02/23 04:39:40;;;;;;;;;;;22.00;33.20;;;;;;473564;252;1099;-39
2022/02/23 04:41:41;;;;;;;;;;;22.00;33.20;;;;;;473611;251;1356;-39
2022/02/23 04:43:43;;;;;;;;;;;22.00;33.20;;;;;;476358;249;1224;-39
2022/02/23 04:45:44;;;;;;;;;;;22.00;33.20;;;;;;473667;252;1371;-39
2022/02/23 04:47:45;;;;;;;;;;;22.00;33.20;;;;;;474016;251;2201;-39
2022/02/23 04:49:46;;;;;;;;;;;22.00;33.30;;;;;;476461;249;1165;-39
2022/02/23 04:51:48;;;;;;;;;;;22.00;33.30;;;;;;473713;252;1014;-39
2022/02/23 04:53:50;;;;;;;;;;;22.00;33.30;;;;;;473719;251;1120;-39
2022/02/23 04:55:51;;;;;;;;;;;22.00;33.20;;;;;;476041;249;1046;-39
2022/02/23 04:57:52;;;;;;;;;;;22.00;33.20;;;;;;473291;252;1435;-39
2022/02/23 04:59:54;;;;;;;;;;;22.00;33.20;;;;;;473706;251;1088;-39
2022/02/23 05:01:55;;;;;;;;;;;22.00;33.20;;;;;;476114;249;2212;-39
2022/02/23 05:03:56;;;;;;;;;;;22.00;33.10;;;;;;473311;252;1276;-39
2022/02/23 05:05:59;;;;;;;;;;;22.00;33.20;;;;;;473686;251;1155;-39
2022/02/23 05:07:59;;;;;;;;;;;22.00;33.10;;;;;;475930;249;2212;-39
2022/02/23 05:10:00;;;;;;;;;;;22.00;33.20;;;;;;473296;252;1269;-39
2022/02/23 05:12:01;;;;;;;;;;;22.00;33.20;;;;;;473863;251;1213;-39
2022/02/23 05:14:03;;;;;;;;;;;22.00;33.20;;;;;;475967;249;1045;-39
2022/02/23 05:16:04;;;;;;;;;;;22.00;33.20;;;;;;473354;252;1203;-39
2022/02/23 05:18:05;;;;;;;;;;;22.00;33.30;;;;;;473893;251;1343;-39
2022/02/23 05:20:07;;;;;;;;;;;22.00;33.30;;;;;;476040;249;1159;-39
2022/02/23 05:22:08;;;;;;;;;;;22.00;33.20;;;;;;473292;252;1215;-39
2022/02/23 05:24:09;;;;;;;;;;;22.00;33.10;;;;;;473834;251;1116;-39
2022/02/23 05:26:11;;;;;;;;;;;22.10;33.20;;;;;;476094;245;1362;-39
2022/02/23 05:28:12;;;;;;;;;;;22.00;33.20;;;;;;473121;252;2185;-39
2022/02/23 05:30:14;;;;;;;;;;;22.00;33.20;;;;;;473806;251;1179;-39
2022/02/23 05:32:15;;;;;;;;;;;22.00;33.20;;;;;;475679;249;1229;-39
2022/02/23 05:34:16;;;;;;;;;;;22.00;33.20;;;;;;473596;252;1072;-39
2022/02/23 05:36:18;;;;;;;;;;;22.00;33.20;;;;;;473780;251;2254;-39
2022/02/23 05:38:19;;;;;;;;;;;22.00;33.20;;;;;;476187;249;1266;-40
2022/02/23 05:40:21;;;;;;;;;;;22.00;33.20;;;;;;473153;252;1164;-39
2022/02/23 05:42:22;;;;;;;;;;;22.00;33.20;;;;;;473673;251;1160;-39
2022/02/23 05:44:23;;;;;;;;;;;22.00;33.20;;;;;;476296;249;1216;-39
2022/02/23 05:46:25;;;;;;;;;;;22.00;33.30;;;;;;473000;252;1365;-39
2022/02/23 05:48:26;;;;;;;;;;;22.00;33.30;;;;;;473869;251;2193;-39
2022/02/23 05:50:27;;;;;;;;;;;22.00;33.30;;;;;;475892;249;1085;-39
2022/02/23 05:52:29;;;;;;;;;;;22.00;33.20;;;;;;473117;252;1419;-40
2022/02/23 05:54:31;;;;;;;;;;;22.10;33.20;;;;;;473836;251;1266;-39
2022/02/23 05:56:32;;;;;;;;;;;22.00;33.10;;;;;;475755;249;1445;-39
2022/02/23 05:58:34;;;;;;;;;;;22.10;33.30;;;;;;473016;252;1231;-39
2022/02/23 06:00:35;;;;;;;;;;;22.00;33.30;;;;;;473746;251;1355;-39
2022/02/23 06:02:36;;;;;;;;;;;22.00;33.30;;;;;;475980;249;1162;-39
2022/02/23 06:04:37;;;;;;;;;;;22.00;33.20;;;;;;473130;252;1132;-39
2022/02/23 06:06:39;;;;;;;;;;;22.00;33.20;;;;;;473447;245;1236;-39
2022/02/23 06:08:40;;;;;;;;;;;22.00;33.20;;;;;;475795;249;2125;-39
2022/02/23 06:10:41;;;;;;;;;;;22.00;33.30;;;;;;473309;252;1097;-39
2022/02/23 06:12:43;;;;;;;;;;;22.00;33.20;;;;;;473385;251;1511;-39
2022/02/23 06:14:44;;;;;;;;;;;22.00;33.20;;;;;;475703;249;1089;-39
2022/02/23 06:16:46;;;;;;;;;;;22.00;33.30;;;;;;473041;252;1217;-39
2022/02/23 06:18:47;;;;;;;;;;;22.00;33.30;;;;;;473696;251;1095;-39
2022/02/23 06:20:48;;;;;;;;;;;22.00;33.40;;;;;;475855;249;1419;-39
2022/02/23 06:22:49;;;;;;;;;;;22.00;33.30;;;;;;473129;252;1176;-39
2022/02/23 06:24:51;;;;;;;;;;;22.00;33.20;;;;;;473895;251;1212;-39
2022/02/23 06:26:52;;;;;;;;;;;22.00;33.20;;;;;;475829;249;1207;-39
2022/02/23 06:28:53;;;;;;;;;;;22.00;33.30;;;;;;473020;252;2198;-39
2022/02/23 06:30:55;;;;;;;;;;;22.00;33.30;;;;;;473419;251;1544;-39
2022/02/23 06:32:56;;;;;;;;;;;22.00;33.20;;;;;;475647;249;1069;-39
2022/02/23 06:34:57;;;;;;;;;;;22.00;33.20;;;;;;472914;252;1133;-39
2022/02/23 06:37:02;;;;;;;;;;;22.00;33.20;;;;;;473341;251;1183;-40
2022/02/23 06:39:00;;;;;;;;;;;22.10;33.30;;;;;;475404;250;2047;-39
2022/02/23 06:41:01;;;;;;;;;;;22.00;33.20;;;;;;473375;252;1284;-39
2022/02/23 06:43:03;;;;;;;;;;;22.00;33.20;;;;;;473397;251;1130;-39
2022/02/23 06:45:04;;;;;;;;;;;22.00;33.20;;;;;;475699;249;1119;-39
2022/02/23 06:47:05;;;;;;;;;;;22.00;33.20;;;;;;472788;252;1366;-39
2022/02/23 06:49:06;;;;;;;;;;;22.00;33.20;;;;;;473242;251;2205;-39
2022/02/23 06:51:08;;;;;;;;;;;22.10;33.20;;;;;;475460;249;1196;-39
2022/02/23 06:53:09;;;;;;;;;;;22.10;33.10;;;;;;472923;252;1094;-39
2022/02/23 06:55:11;;;;;;;;;;;22.00;33.10;;;;;;473316;251;1047;-39
2022/02/23 06:57:12;;;;;;;;;;;22.00;33.20;;;;;;475453;249;1163;-39
2022/02/23 06:59:13;;;;;;;;;;;22.00;33.20;;;;;;472981;252;1227;-39
2022/02/23 07:01:16;;;;;;;;;;;22.00;33.30;;;;;;473505;248;1422;-39
2022/02/23 07:03:16;;;;;;;;;;;22.00;33.20;;;;;;475758;249;2137;-39
2022/02/23 07:05:17;;;;;;;;;;;22.00;33.10;;;;;;472843;252;1089;-40
2022/02/23 07:07:19;;;;;;;;;;;22.00;33.20;;;;;;473660;251;1294;-39
2022/02/23 07:09:20;;;;;;;;;;;22.10;33.30;;;;;;475457;249;2137;-39
2022/02/23 07:11:25;;;;;;;;;;;22.00;33.20;;;;;;473009;252;1101;-39
2022/02/23 07:13:22;;;;;;;;;;;22.00;33.20;;;;;;472950;251;2058;-39
2022/02/23 07:15:24;;;;;;;;;;;22.00;33.10;;;;;;475655;249;1233;-39
2022/02/23 07:17:26;;;;;;;;;;;22.00;33.10;;;;;;472596;252;1246;-39
2022/02/23 07:19:27;;;;;;;;;;;22.00;33.10;;;;;;473500;251;2190;-39
2022/02/23 07:21:28;;;;;;;;;;;22.00;33.10;;;;;;475541;249;1355;-39
2022/02/23 07:23:29;;;;;;;;;;;22.00;33.10;;;;;;472846;252;1287;-39
2022/02/23 07:25:30;;;;;;;;;;;22.00;33.10;;;;;;473320;251;1127;-39
2022/02/23 07:27:32;;;;;;;;;;;22.00;33.10;;;;;;475572;249;1260;-39
2022/02/23 07:29:33;;;;;;;;;;;22.00;33.10;;;;;;472777;252;2182;-39
2022/02/23 07:31:35;;;;;;;;;;;22.10;33.10;;;;;;473246;251;1197;-39
2022/02/23 07:33:36;;;;;;;;;;;22.10;33.10;;;;;;475494;249;2324;-39
2022/02/23 07:35:37;;;;;;;;;;;22.00;33.10;;;;;;472823;252;1078;-39
2022/02/23 07:37:38;;;;;;;;;;;22.00;33.10;;;;;;473250;251;1124;-39
2022/02/23 07:39:40;;;;;;;;;;;22.00;33.10;;;;;;475345;249;1235;-39
2022/02/23 07:41:41;;;;;;;;;;;22.00;33.10;;;;;;472639;252;1119;-39
2022/02/23 07:43:43;;;;;;;;;;;22.00;33.00;;;;;;473143;251;1330;-39
2022/02/23 07:45:44;;;;;;;;;;;22.00;33.00;;;;;;475628;249;1285;-39
2022/02/23 07:47:46;;;;;;;;;;;22.00;33.00;;;;;;472584;252;1266;-39
2022/02/23 07:49:49;;;;;;;;;;;22.00;33.00;;;;;;473050;251;2142;-39
2022/02/23 07:51:48;;;;;;;;;;;22.10;33.00;;;;;;475139;250;2116;-39
2022/02/23 07:53:52;;;;;;;;;;;22.10;33.00;;;;;;472608;252;1082;-39
2022/02/23 07:55:51;;;;;;;;;;;22.00;32.90;;;;;;472789;252;2034;-39
2022/02/23 07:57:52;;;;;;;;;;;22.10;33.00;;;;;;475151;249;1184;-39
2022/02/23 07:59:54;;;;;;;;;;;22.00;32.90;;;;;;472652;252;1229;-39
2022/02/23 08:01:55;;;;;;;;;;;22.00;32.90;;;;;;473036;251;1273;-39
2022/02/23 08:03:56;;;;;;;;;;;22.00;32.90;;;;;;475371;249;1272;-39
2022/02/23 08:05:57;;;;;;;;;;;22.10;32.90;;;;;;472368;252;1272;-39
2022/02/23 08:07:59;;;;;;;;;;;22.10;32.90;;;;;;472743;251;2173;-39
2022/02/23 08:10:00;;;;;;;;;;;22.10;32.90;;;;;;474979;249;1084;-39
2022/02/23 08:12:03;;;;;;;;;;;22.00;32.90;;;;;;472405;252;1301;-39
2022/02/23 08:14:03;;;;;;;;;;;22.00;32.80;;;;;;473001;251;2742;-39
2022/02/23 08:20:43;;;;;;;;;;;22.00;32.80;;;;;;473010;250;1186;-39
2022/02/23 08:22:44;;;;;;;;;;;22.10;32.90;;;;;;475007;249;1078;-39
2022/02/23 08:24:46;;;;;;;;;;;22.10;32.80;;;;;;472660;252;1078;-39
2022/02/23 08:26:47;;;;;;;;;;;22.10;32.80;;;;;;472846;251;2319;-39
2022/02/23 08:28:48;;;;;;;;;;;22.00;32.90;;;;;;475487;249;2180;-39
2022/02/23 08:30:49;;;;;;;;;;;22.00;32.90;;;;;;472277;252;1132;-39
2022/02/23 08:32:51;;;;;;;;;;;22.00;32.80;;;;;;472417;251;1241;-39
2022/02/23 08:34:52;;;;;;;;;;;22.00;32.90;;;;;;475008;249;1190;-39
2022/02/23 08:36:54;;;;;;;;;;;22.00;32.80;;;;;;472366;252;1347;-39
2022/02/23 08:38:55;;;;;;;;;;;22.00;32.70;;;;;;472575;251;1119;-39
2022/02/23 08:40:56;;;;;;;;;;;22.00;32.80;;;;;;475045;249;1492;-39
2022/02/23 08:42:57;;;;;;;;;;;22.00;32.80;;;;;;472214;252;1174;-39
2022/02/23 08:44:59;;;;;;;;;;;22.00;32.80;;;;;;472881;251;1409;-40
2022/02/23 08:47:00;;;;;;;;;;;22.00;32.80;;;;;;475093;249;1190;-39
2022/02/23 08:49:02;;;;;;;;;;;22.00;32.80;;;;;;472453;252;2202;-39
2022/02/23 08:51:03;;;;;;;;;;;22.10;32.70;;;;;;472916;245;1399;-39
2022/02/23 08:53:05;;;;;;;;;;;22.00;32.70;;;;;;475161;249;1175;-39
2022/02/23 08:55:08;;;;;;;;;;;22.00;32.80;;;;;;472682;252;1128;-39
2022/02/23 08:57:08;;;;;;;;;;;22.00;32.80;;;;;;472729;252;1465;-39
2022/02/23 08:59:09;;;;;;;;;;;22.00;32.70;;;;;;475135;249;1167;-39
2022/02/23 09:01:10;;;;;;;;;;;22.00;32.70;;;;;;472545;252;1108;-39
2022/02/23 09:03:11;;;;;;;;;;;22.00;32.70;;;;;;472892;251;1132;-39
2022/02/23 09:05:13;;;;;;;;;;;22.10;32.80;;;;;;475171;249;1133;-39
2022/02/23 09:07:14;;;;;;;;;;;22.00;32.60;;;;;;472419;252;1353;-39
2022/02/23 09:09:15;;;;;;;;;;;22.00;32.60;;;;;;472941;251;2174;-39
2022/02/23 09:11:16;;;;;;;;;;;22.10;32.70;;;;;;475422;249;1153;-39
2022/02/23 09:13:18;;;;;;;;;;;22.00;32.70;;;;;;472604;252;1117;-39
2022/02/23 09:15:19;;;;;;;;;;;22.10;32.60;;;;;;472847;251;1273;-39
2022/02/23 09:17:20;;;;;;;;;;;22.10;32.70;;;;;;474966;249;1340;-39
2022/02/23 09:19:22;;;;;;;;;;;22.00;32.60;;;;;;472475;252;1075;-39
2022/02/23 09:21:23;;;;;;;;;;;22.00;32.60;;;;;;472585;251;1487;-39
2022/02/23 09:23:25;;;;;;;;;;;22.00;32.60;;;;;;475509;249;857;-39
2022/02/23 09:25:26;;;;;;;;;;;22.00;32.60;;;;;;472644;252;1442;-39
2022/02/23 09:27:27;;;;;;;;;;;22.10;32.60;;;;;;473341;251;1382;-39
2022/02/23 09:29:28;;;;;;;;;;;22.00;32.60;;;;;;475127;249;2204;-39
2022/02/23 09:31:31;;;;;;;;;;;22.00;32.60;;;;;;472069;252;1446;-39
2022/02/23 09:33:31;;;;;;;;;;;22.00;32.60;;;;;;473126;251;2219;-39
2022/02/23 09:35:34;;;;;;;;;;;22.00;32.60;;;;;;475210;249;1363;-39
2022/02/23 09:37:34;;;;;;;;;;;22.00;32.60;;;;;;472313;252;2226;-39
2022/02/23 09:39:35;;;;;;;;;;;22.00;32.60;;;;;;472956;251;1078;-39
2022/02/23 09:41:37;;;;;;;;;;;22.00;32.60;;;;;;475157;249;1292;-39
2022/02/23 09:43:38;;;;;;;;;;;22.00;32.50;;;;;;472736;252;1389;-39
2022/02/23 09:45:39;;;;;;;;;;;22.00;32.50;;;;;;472909;251;1205;-39
2022/02/23 09:47:40;;;;;;;;;;;22.00;32.60;;;;;;475690;249;1326;-39
2022/02/23 09:49:43;;;;;;;;;;;22.00;32.60;;;;;;472409;252;2198;-39
2022/02/23 09:51:43;;;;;;;;;;;22.00;32.60;;;;;;472636;252;1934;-39
2022/02/23 09:53:45;;;;;;;;;;;22.00;32.60;;;;;;475335;249;832;-39
2022/02/23 09:55:47;;;;;;;;;;;22.00;32.50;;;;;;472861;252;1146;-39
2022/02/23 09:57:48;;;;;;;;;;;22.00;32.50;;;;;;472779;251;1180;-40
2022/02/23 09:59:49;;;;;;;;;;;22.00;32.50;;;;;;474986;249;1189;-39
2022/02/23 10:01:51;;;;;;;;;;;22.00;32.60;;;;;;472288;252;1212;-39
2022/02/23 10:03:52;;;;;;;;;;;22.00;32.50;;;;;;472796;251;1113;-39
2022/02/23 10:05:53;;;;;;;;;;;22.00;32.50;;;;;;472995;251;1120;-39
2022/02/23 10:07:55;;;;;;;;;;;22.00;32.50;;;;;;481185;246;1235;-39
2022/02/23 10:09:59;;;;;;;;;;;22.00;32.60;;;;;;481078;246;2125;-39
2022/02/23 10:11:57;;;;;;;;;;;22.00;32.50;;;;;;480942;245;1883;-39
2022/02/23 10:14:01;;;;;;;;;;;22.00;32.50;;;;;;480969;247;1094;-40
2022/02/23 10:16:00;;;;;;;;;;;22.00;32.50;;;;;;472760;252;2339;-39
2022/02/23 10:18:01;;;;;;;;;;;22.00;32.40;;;;;;481050;246;1091;-39
2022/02/23 10:20:03;;;;;;;;;;;22.00;32.40;;;;;;480951;246;1098;-39
2022/02/23 10:22:05;;;;;;;;;;;22.00;32.40;;;;;;472403;252;1362;-39
2022/02/23 10:24:05;;;;;;;;;;;22.10;32.40;;;;;;481312;247;2138;-39
2022/02/23 10:26:12;;;;;;;;;;;22.10;32.40;;;;;;481821;247;1451;-39
2022/02/23 10:28:08;;;;;;;;;;;22.00;32.50;;;;;;481071;247;2022;-39
2022/02/23 10:30:10;;;;;;;;;;;22.00;32.40;;;;;;480983;247;2125;-39
2022/02/23 10:32:11;;;;;;;;;;;22.00;32.40;;;;;;481252;247;2217;-39
2022/02/23 10:34:12;;;;;;;;;;;22.00;32.40;;;;;;481840;247;855;-39
2022/02/23 10:36:16;;;;;;;;;;;22.00;32.40;;;;;;481656;247;1327;-39
2022/02/23 10:38:14;;;;;;;;;;;22.00;32.40;;;;;;481058;247;2755;-39
2022/02/23 10:40:16;;;;;;;;;;;22.00;32.40;;;;;;481161;246;1112;-39
2022/02/23 10:42:17;;;;;;;;;;;22.00;32.30;;;;;;481000;246;1198;-39
2022/02/23 10:44:18;;;;;;;;;;;22.00;32.40;;;;;;481147;247;1118;-39
2022/02/23 10:46:21;;;;;;;;;;;22.00;32.40;;;;;;472321;252;1264;-39
2022/02/23 10:48:21;;;;;;;;;;;22.00;32.40;;;;;;481726;247;2049;-39
2022/02/23 10:50:24;;;;;;;;;;;22.00;32.40;;;;;;481765;246;2185;-40
2022/02/23 10:52:24;;;;;;;;;;;22.00;32.40;;;;;;480999;246;2362;-40
2022/02/23 10:54:26;;;;;;;;;;;22.00;32.40;;;;;;481742;247;861;-39
2022/02/23 10:56:27;;;;;;;;;;;22.00;32.30;;;;;;473251;252;1213;-39
2022/02/23 10:58:28;;;;;;;;;;;22.00;32.30;;;;;;481785;247;847;-39
2022/02/23 11:00:30;;;;;;;;;;;22.00;32.30;;;;;;481572;246;1198;-39
2022/02/23 11:02:31;;;;;;;;;;;22.00;32.20;;;;;;481851;246;1077;-39
2022/02/23 11:04:32;;;;;;;;;;;22.00;32.20;;;;;;473612;251;1641;-39
2022/02/23 11:06:34;;;;;;;;;;;22.00;32.20;;;;;;481717;246;1169;-39
2022/02/23 11:08:35;;;;;;;;;;;22.00;32.20;;;;;;481611;246;938;-39
2022/02/23 11:10:36;;;;;;;;;;;22.00;32.20;;;;;;473141;252;2178;-39
2022/02/23 11:12:38;;;;;;;;;;;22.00;32.30;;;;;;481901;246;1364;-39
2022/02/23 11:14:39;;;;;;;;;;;22.00;32.30;;;;;;481783;246;830;-39
2022/02/23 11:16:40;;;;;;;;;;;22.00;32.30;;;;;;473182;251;1693;-39
2022/02/23 11:18:42;;;;;;;;;;;22.00;32.30;;;;;;478454;248;1417;-39
2022/02/23 11:20:43;;;;;;;;;;;22.00;32.20;;;;;;478690;249;648;-39
2022/02/23 11:22:44;;;;;;;;;;;22.00;32.20;;;;;;478735;249;818;-39
2022/02/23 11:24:45;;;;;;;;;;;22.00;32.30;;;;;;479113;249;856;-39
2022/02/23 11:26:47;;;;;;;;;;;22.00;32.30;;;;;;478588;249;826;-39
2022/02/23 11:28:48;;;;;;;;;;;22.00;32.30;;;;;;478582;249;878;-39
2022/02/23 11:30:49;;;;;;;;;;;22.00;32.30;;;;;;478453;249;2206;-39
2022/02/23 11:32:51;;;;;;;;;;;22.00;32.20;;;;;;478487;249;736;-39
2022/02/23 11:34:52;;;;;;;;;;;22.00;32.20;;;;;;478776;249;773;-39
2022/02/23 11:36:53;;;;;;;;;;;22.00;32.20;;;;;;478820;249;945;-39
2022/02/23 11:38:55;;;;;;;;;;;22.00;32.20;;;;;;478382;249;710;-39
2022/02/23 11:40:57;;;;;;;;;;;21.90;32.20;;;;;;478492;249;762;-39
2022/02/23 11:42:58;;;;;;;;;;;22.00;32.30;;;;;;478635;249;2290;-39
2022/02/23 11:44:59;;;;;;;;;;;22.00;32.30;;;;;;478557;249;1073;-39
2022/02/23 11:47:01;;;;;;;;;;;22.00;32.20;;;;;;478479;249;1250;-39
2022/02/23 11:49:02;;;;;;;;;;;22.00;32.20;;;;;;478503;249;1537;-39
2022/02/23 11:51:03;;;;;;;;;;;22.00;32.20;;;;;;478317;249;2661;-39
2022/02/23 11:53:04;;;;;;;;;;;22.00;32.20;;;;;;478428;249;1093;-39
2022/02/23 11:55:05;;;;;;;;;;;22.00;32.10;;;;;;478487;249;1095;-39
2022/02/23 11:57:07;;;;;;;;;;;22.00;32.10;;;;;;478296;249;1151;-39
2022/02/23 11:59:08;;;;;;;;;;;22.00;32.10;;;;;;479029;249;1137;-39
2022/02/23 12:01:09;;;;;;;;;;;22.00;32.10;;;;;;478357;249;1130;-40